Time;durP1;ratioP1;P1;durP2;ratioP2;P2;SDS_P1;SDS_P2;PMS_P1;PMS_P2;Temp;Humidity;BMP_temperature;BMP_pressure;BME280_temperature;BME280_humidity;BME280_pressure;Samples;Min_cycle;Max_cycle;Signal;HPM_P1;HPM_P2
2021/10/02 00:02:13;;;;;;;7.90;5.80;;;16.30;99.90;;;;;;5054273;28;20450;-55
2021/10/02 00:37:32;;;;;;;7.17;5.70;;;15.60;99.90;;;;;;4994619;28;20435;-57
2021/10/02 00:45:25;;;;;;;6.83;6.13;;;15.60;99.90;;;;;;5028159;28;20476;-58
2021/10/02 00:47:56;;;;;;;5.83;4.87;;;15.70;99.90;;;;;;5013611;28;20402;-57
2021/10/02 00:50:22;;;;;;;6.20;5.67;;;15.70;99.90;;;;;;5013647;28;20194;-57
2021/10/02 00:52:49;;;;;;;7.60;6.00;;;15.80;99.90;;;;;;5013593;28;20406;-56
2021/10/02 00:55:15;;;;;;;6.43;5.83;;;15.70;99.90;;;;;;5013197;28;20262;-58
2021/10/02 00:57:41;;;;;;;6.53;5.77;;;15.70;99.90;;;;;;5013582;28;20394;-58
2021/10/02 01:00:08;;;;;;;6.33;5.73;;;15.70;99.90;;;;;;5012500;28;20544;-55
2021/10/02 01:02:36;;;;;;;7.33;5.63;;;15.70;99.90;;;;;;5013294;28;20572;-58
2021/10/02 01:05:17;;;;;;;5.87;5.27;;;15.70;99.90;;;;;;5013298;28;20483;-54
2021/10/02 01:07:55;;;;;;;5.83;5.20;;;15.60;99.90;;;;;;5013304;28;20382;-53
2021/10/02 01:10:23;;;;;;;7.10;6.40;;;15.60;99.90;;;;;;5013113;28;20468;-57
2021/10/02 01:13:05;;;;;;;8.97;6.13;;;15.60;99.90;;;;;;5013331;28;20582;-56
2021/10/02 01:15:59;;;;;;;6.50;5.90;;;15.70;99.90;;;;;;5046484;28;20579;-58
2021/10/02 01:18:30;;;;;;;7.73;6.90;;;15.70;99.90;;;;;;5047264;28;20416;-57
2021/10/02 01:21:23;;;;;;;5.67;5.07;;;15.70;99.90;;;;;;5052952;28;20459;-58
2021/10/02 01:24:07;;;;;;;7.20;5.90;;;15.80;99.90;;;;;;5052859;28;20432;-58
2021/10/02 01:26:56;;;;;;;6.43;5.83;;;15.70;99.90;;;;;;5052887;28;20480;-58
2021/10/02 01:29:24;;;;;;;6.23;5.30;;;15.90;99.90;;;;;;5052273;28;20400;-58
2021/10/02 01:32:13;;;;;;;6.67;6.00;;;15.90;99.90;;;;;;5052029;28;20409;-58
2021/10/02 01:35:02;;;;;;;6.10;5.50;;;16.00;99.90;;;;;;5052778;28;20429;-58
2021/10/02 01:48:37;;;;;;;6.80;5.80;;;15.80;99.90;;;;;;5053196;28;20382;-57
2021/10/02 01:51:03;;;;;;;8.20;5.80;;;15.90;99.90;;;;;;5052427;28;20406;-55
2021/10/02 01:53:33;;;;;;;8.87;5.70;;;15.90;99.90;;;;;;5052293;28;20916;-55
2021/10/02 01:56:04;;;;;;;5.70;5.10;;;16.00;99.90;;;;;;5052759;28;20836;-58
2021/10/02 01:58:30;;;;;;;5.93;5.43;;;16.00;99.90;;;;;;5052355;28;20437;-55
2021/10/02 02:00:56;;;;;;;8.50;5.80;;;15.90;99.90;;;;;;5052123;28;20471;-58
2021/10/02 02:03:26;;;;;;;7.00;6.07;;;15.90;99.90;;;;;;5052659;28;20458;-55
2021/10/02 02:05:54;;;;;;;5.80;5.30;;;15.90;99.90;;;;;;5052164;28;20773;-54
2021/10/02 02:08:21;;;;;;;6.30;5.70;;;15.90;99.90;;;;;;5052281;28;20419;-55
2021/10/02 02:10:47;;;;;;;6.57;5.60;;;15.90;99.90;;;;;;5052484;28;20413;-56
2021/10/02 02:13:15;;;;;;;7.57;6.83;;;15.70;99.90;;;;;;5055358;28;20453;-55
2021/10/02 02:15:42;;;;;;;8.33;5.90;;;15.80;99.90;;;;;;5055478;28;21014;-56
2021/10/02 02:18:11;;;;;;;6.70;6.00;;;15.90;99.90;;;;;;5055892;28;20408;-56
2021/10/02 02:20:41;;;;;;;6.50;5.87;;;15.80;99.90;;;;;;5056023;28;20757;-57
2021/10/02 02:23:12;;;;;;;6.73;6.03;;;15.80;99.90;;;;;;5056038;28;20465;-55
2021/10/02 02:25:38;;;;;;;5.60;5.03;;;15.70;99.90;;;;;;5055478;28;20425;-55
2021/10/02 02:28:05;;;;;;;5.93;5.30;;;15.60;99.90;;;;;;5055988;28;20424;-57
2021/10/02 02:30:31;;;;;;;5.80;4.70;;;15.70;99.90;;;;;;5055422;28;20408;-57
2021/10/02 02:32:57;;;;;;;6.00;5.40;;;15.70;99.90;;;;;;5055611;28;20890;-54
2021/10/02 02:35:23;;;;;;;6.43;5.83;;;15.70;99.90;;;;;;5055748;28;20193;-52
2021/10/02 02:37:50;;;;;;;6.00;5.40;;;15.80;99.90;;;;;;5047545;28;20922;-52
2021/10/02 02:40:15;;;;;;;6.40;5.10;;;15.90;99.90;;;;;;5016368;28;20425;-51
2021/10/02 02:42:42;;;;;;;6.10;5.50;;;15.90;99.90;;;;;;5016119;28;20399;-57
2021/10/02 02:45:08;;;;;;;6.03;5.47;;;16.00;99.90;;;;;;5042671;28;20196;-56
2021/10/02 02:47:43;;;;;;;6.03;5.43;;;16.00;99.90;;;;;;5055378;28;20397;-55
2021/10/02 02:50:29;;;;;;;6.20;5.50;;;16.00;99.90;;;;;;5055626;28;20793;-56
2021/10/02 02:53:01;;;;;;;5.70;5.03;;;16.00;99.90;;;;;;5055094;28;20416;-54
2021/10/02 02:55:32;;;;;;;8.60;6.10;;;16.00;99.90;;;;;;5054959;28;20997;-53
2021/10/02 02:58:03;;;;;;;6.13;5.53;;;15.90;99.90;;;;;;5055670;28;20387;-54
2021/10/02 03:00:30;;;;;;;6.20;5.60;;;15.90;99.90;;;;;;5055316;28;20444;-55
2021/10/02 03:03:11;;;;;;;5.90;5.40;;;15.80;99.90;;;;;;5055609;28;20883;-55
2021/10/02 03:05:41;;;;;;;7.83;5.93;;;15.70;99.90;;;;;;5054983;28;20430;-54
2021/10/02 03:08:09;;;;;;;5.97;5.43;;;15.60;99.90;;;;;;5055402;28;20433;-56
2021/10/02 03:10:37;;;;;;;8.33;6.13;;;15.50;99.90;;;;;;5054853;28;20897;-58
2021/10/02 03:13:06;;;;;;;5.83;5.33;;;15.50;99.90;;;;;;5055098;28;20936;-58
2021/10/02 03:15:34;;;;;;;6.50;5.67;;;15.60;99.90;;;;;;5054491;28;20518;-50
2021/10/02 03:18:00;;;;;;;7.00;5.90;;;15.70;99.90;;;;;;5054886;28;20477;-57
2021/10/02 03:20:27;;;;;;;6.20;5.60;;;15.70;99.90;;;;;;5054660;28;20539;-52
2021/10/02 03:22:54;;;;;;;5.90;5.30;;;15.80;99.90;;;;;;5054686;28;20411;-58
2021/10/02 03:25:26;;;;;;;5.87;5.20;;;15.80;99.90;;;;;;5052578;28;20463;-57
2021/10/02 03:27:54;;;;;;;7.10;5.87;;;15.80;99.90;;;;;;5025791;28;20503;-56
2021/10/02 03:30:20;;;;;;;7.03;5.93;;;15.80;99.90;;;;;;5034301;28;20782;-54
2021/10/02 03:32:46;;;;;;;6.93;6.30;;;15.70;99.90;;;;;;5034866;28;20405;-54
2021/10/02 03:35:12;;;;;;;6.23;5.63;;;15.70;99.90;;;;;;5034401;28;20477;-53
2021/10/02 03:37:38;;;;;;;7.40;6.50;;;15.70;99.90;;;;;;5034585;28;20402;-54
2021/10/02 03:40:05;;;;;;;6.13;5.23;;;15.70;99.90;;;;;;5034162;28;20758;-54
2021/10/02 03:42:41;;;;;;;5.63;5.10;;;15.70;99.90;;;;;;5034456;28;20465;-56
2021/10/02 03:45:07;;;;;;;6.80;6.10;;;15.70;99.90;;;;;;5047591;28;20499;-55
2021/10/02 03:47:33;;;;;;;7.80;6.23;;;15.80;99.90;;;;;;5054115;28;20498;-57
2021/10/02 03:49:58;;;;;;;5.80;5.23;;;15.80;99.90;;;;;;5054276;28;20487;-57
2021/10/02 03:52:24;;;;;;;7.13;5.90;;;15.80;99.90;;;;;;5054086;28;20174;-55
2021/10/02 03:54:49;;;;;;;6.90;5.90;;;15.70;99.90;;;;;;5033316;28;20207;-56
2021/10/02 03:57:15;;;;;;;6.50;5.80;;;15.60;99.90;;;;;;5016755;28;20200;-58
2021/10/02 03:59:40;;;;;;;6.50;5.90;;;15.60;99.90;;;;;;5013680;28;20175;-59
2021/10/02 04:02:07;;;;;;;6.70;6.00;;;15.60;99.90;;;;;;5014296;28;20200;-53
2021/10/02 04:04:33;;;;;;;6.23;5.63;;;15.60;99.90;;;;;;5014308;28;20307;-55
2021/10/02 04:06:58;;;;;;;6.43;5.73;;;15.60;99.90;;;;;;5014141;28;20417;-54
2021/10/02 04:09:24;;;;;;;7.73;7.03;;;15.60;99.90;;;;;;5013786;28;20411;-57
2021/10/02 04:11:50;;;;;;;8.13;6.90;;;15.60;99.90;;;;;;5014287;28;20182;-55
2021/10/02 04:14:16;;;;;;;7.00;6.03;;;15.60;99.90;;;;;;5055969;22;20506;-57
2021/10/02 04:16:41;;;;;;;6.63;5.70;;;15.50;99.90;;;;;;5054420;28;20228;-58
2021/10/02 04:19:07;;;;;;;6.60;6.00;;;15.50;99.90;;;;;;5054514;28;20169;-53
2021/10/02 04:21:32;;;;;;;7.33;6.07;;;15.50;99.90;;;;;;5054295;28;20198;-53
2021/10/02 04:24:00;;;;;;;5.63;5.03;;;15.60;99.90;;;;;;5054627;28;20639;-51
2021/10/02 04:26:25;;;;;;;6.50;5.13;;;15.60;99.90;;;;;;5054137;28;20262;-59
2021/10/02 04:28:51;;;;;;;7.33;5.93;;;15.50;99.90;;;;;;5054435;28;20436;-58
2021/10/02 04:31:17;;;;;;;6.30;5.70;;;15.50;99.90;;;;;;5053924;28;20175;-58
2021/10/02 04:33:44;;;;;;;5.90;5.30;;;15.50;99.90;;;;;;5054091;28;20168;-58
2021/10/02 04:36:10;;;;;;;6.00;5.30;;;15.50;99.90;;;;;;5053894;28;20209;-59
2021/10/02 04:38:35;;;;;;;9.03;6.63;;;15.60;99.90;;;;;;5024348;28;20453;-58
2021/10/02 04:41:02;;;;;;;5.63;5.13;;;15.50;99.90;;;;;;5014216;28;20649;-59
2021/10/02 04:43:28;;;;;;;5.07;4.63;;;15.50;99.90;;;;;;5014770;28;20264;-57
2021/10/02 04:45:53;;;;;;;6.57;5.97;;;15.40;99.90;;;;;;5046240;28;20520;-56
2021/10/02 04:48:19;;;;;;;6.70;6.00;;;15.30;99.90;;;;;;5054109;28;20176;-58
2021/10/02 04:50:44;;;;;;;7.70;5.87;;;15.20;99.90;;;;;;5054792;28;20255;-58
2021/10/02 04:53:10;;;;;;;6.27;5.67;;;15.00;99.90;;;;;;5054698;28;20170;-56
2021/10/02 04:55:36;;;;;;;6.33;5.10;;;15.10;99.90;;;;;;5054283;28;20190;-56
2021/10/02 04:58:01;;;;;;;6.13;5.53;;;15.20;99.90;;;;;;5054313;28;20174;-58
2021/10/02 05:00:27;;;;;;;5.97;5.10;;;15.30;99.90;;;;;;5054397;28;20174;-56
2021/10/02 05:02:53;;;;;;;6.20;5.60;;;15.20;99.90;;;;;;5054802;28;20159;-57
2021/10/02 05:05:18;;;;;;;11.97;10.80;;;15.10;99.90;;;;;;5054602;28;20179;-57
2021/10/02 05:07:44;;;;;;;7.83;7.13;;;15.10;99.90;;;;;;5054026;28;20179;-55
2021/10/02 05:10:10;;;;;;;100.80;89.83;;;15.10;99.90;;;;;;5053893;28;20173;-58
2021/10/02 05:12:35;;;;;;;43.30;38.80;;;15.00;99.90;;;;;;5054536;28;20240;-57
2021/10/02 05:15:02;;;;;;;17.53;15.83;;;15.10;99.90;;;;;;5053946;28;20207;-57
2021/10/02 05:17:27;;;;;;;12.77;10.37;;;15.00;99.90;;;;;;5054633;28;20411;-57
2021/10/02 05:19:53;;;;;;;7.90;7.10;;;15.00;99.90;;;;;;5054830;28;20919;-57
2021/10/02 05:22:19;;;;;;;7.13;6.30;;;14.90;99.90;;;;;;5055262;28;20194;-56
2021/10/02 05:24:44;;;;;;;7.87;6.60;;;14.90;99.90;;;;;;5053789;28;20198;-59
2021/10/02 05:27:10;;;;;;;6.73;6.03;;;14.80;99.90;;;;;;5053711;28;20204;-56
2021/10/02 05:29:39;;;;;;;7.10;6.40;;;14.90;99.90;;;;;;5054038;28;20545;-54
2021/10/02 05:32:07;;;;;;;8.17;7.37;;;14.90;99.90;;;;;;5053511;28;20488;-59
2021/10/02 05:34:32;;;;;;;8.77;6.97;;;14.90;99.90;;;;;;5053585;28;20439;-59
2021/10/02 05:36:58;;;;;;;7.77;6.97;;;14.90;99.90;;;;;;5053872;28;20433;-57
2021/10/02 05:39:24;;;;;;;7.43;6.33;;;14.90;99.90;;;;;;5053450;28;20191;-58
2021/10/02 05:41:50;;;;;;;8.13;7.00;;;14.90;99.90;;;;;;5053169;28;20855;-59
2021/10/02 05:44:15;;;;;;;7.40;6.70;;;14.90;99.90;;;;;;5053093;28;20311;-58
2021/10/02 05:46:41;;;;;;;7.57;6.87;;;14.90;99.90;;;;;;5053844;28;20631;-54
2021/10/02 05:49:07;;;;;;;7.37;5.67;;;14.90;99.90;;;;;;5058014;28;20204;-58
2021/10/02 05:51:32;;;;;;;7.07;6.37;;;15.10;99.90;;;;;;5058787;28;20195;-57
2021/10/02 05:53:58;;;;;;;11.70;7.30;;;15.20;99.90;;;;;;5059084;28;20174;-58
2021/10/02 05:56:24;;;;;;;7.60;6.60;;;15.40;99.90;;;;;;5058353;28;20201;-59
2021/10/02 05:58:51;;;;;;;11.10;8.07;;;15.50;99.90;;;;;;5057947;28;20776;-58
2021/10/02 06:01:17;;;;;;;9.03;7.73;;;15.60;99.90;;;;;;5057301;28;20483;-57
2021/10/02 06:03:43;;;;;;;7.70;6.57;;;15.60;99.90;;;;;;5057537;28;20405;-57
2021/10/02 06:06:09;;;;;;;8.60;7.70;;;15.80;99.90;;;;;;5057621;28;20447;-56
2021/10/02 06:08:35;;;;;;;9.53;7.77;;;15.90;99.90;;;;;;5057319;28;20588;-59
2021/10/02 06:11:00;;;;;;;7.53;6.73;;;16.10;99.90;;;;;;5056958;28;20248;-59
2021/10/02 06:13:26;;;;;;;8.23;7.43;;;16.10;99.90;;;;;;5056856;28;20168;-59
2021/10/02 06:15:55;;;;;;;9.43;8.03;;;16.00;99.90;;;;;;5056450;28;20681;-59
2021/10/02 06:18:21;;;;;;;9.07;8.10;;;16.10;99.90;;;;;;5058969;28;20537;-59
2021/10/02 06:20:47;;;;;;;9.60;8.20;;;16.10;99.90;;;;;;5056574;28;21020;-58
2021/10/02 06:23:12;;;;;;;7.97;7.17;;;16.00;99.90;;;;;;5056515;28;20162;-59
2021/10/02 06:25:38;;;;;;;10.43;9.13;;;16.00;99.90;;;;;;5056603;28;20191;-58
2021/10/02 06:28:04;;;;;;;8.47;7.67;;;16.00;99.90;;;;;;5056382;28;20201;-58
2021/10/02 06:30:30;;;;;;;9.20;8.17;;;16.00;99.90;;;;;;5056119;28;20252;-57
2021/10/02 06:32:55;;;;;;;9.30;8.33;;;16.00;99.90;;;;;;5056650;28;20431;-58
2021/10/02 06:35:21;;;;;;;9.33;8.30;;;16.00;99.90;;;;;;5056370;28;20191;-58
2021/10/02 06:37:46;;;;;;;11.63;8.70;;;15.80;99.90;;;;;;5056262;28;20175;-59
2021/10/02 06:40:13;;;;;;;9.00;8.10;;;15.80;99.90;;;;;;5071360;28;20209;-59
2021/10/02 06:42:39;;;;;;;9.33;8.07;;;15.80;99.90;;;;;;5056041;28;20171;-58
2021/10/02 06:45:06;;;;;;;9.00;7.60;;;15.80;99.90;;;;;;5053425;28;20431;-58
2021/10/02 06:47:31;;;;;;;9.37;8.37;;;15.80;99.90;;;;;;5025009;28;20179;-58
2021/10/02 06:49:57;;;;;;;19.90;11.93;;;15.80;99.90;;;;;;5020527;28;20916;-59
2021/10/02 06:52:27;;;;;;;18.30;11.50;;;15.90;99.90;;;;;;5016500;28;20576;-57
2021/10/02 06:54:54;;;;;;;11.77;9.57;;;16.00;99.90;;;;;;5016002;28;20275;-59
2021/10/02 06:57:20;;;;;;;11.33;9.00;;;16.10;99.90;;;;;;5016481;28;20898;-59
2021/10/02 06:59:46;;;;;;;12.30;8.63;;;16.20;99.90;;;;;;5015817;28;20421;-57
2021/10/02 07:02:12;;;;;;;15.33;10.03;;;16.20;99.90;;;;;;5016024;28;20442;-57
2021/10/02 07:04:38;;;;;;;11.43;9.27;;;16.30;99.90;;;;;;5016198;28;20450;-58
2021/10/02 07:07:04;;;;;;;9.00;8.10;;;16.30;99.90;;;;;;5016115;28;20174;-59
2021/10/02 07:09:30;;;;;;;8.40;7.60;;;16.40;99.90;;;;;;5015898;28;20166;-59
2021/10/02 07:11:56;;;;;;;8.10;7.40;;;16.40;99.90;;;;;;5015748;28;20421;-59
2021/10/02 07:14:22;;;;;;;12.00;9.10;;;16.60;99.90;;;;;;5022506;28;20460;-58
2021/10/02 07:16:48;;;;;;;9.13;8.10;;;16.60;99.90;;;;;;5054447;28;20411;-59
2021/10/02 07:19:15;;;;;;;9.67;7.87;;;16.60;99.90;;;;;;5054531;28;20404;-59
2021/10/02 07:21:40;;;;;;;9.13;7.87;;;16.60;99.90;;;;;;5054548;28;20285;-56
2021/10/02 07:24:06;;;;;;;8.97;7.50;;;16.80;99.90;;;;;;5054145;28;20430;-58
2021/10/02 07:26:32;;;;;;;9.37;8.07;;;16.70;99.90;;;;;;5054318;28;20274;-59
2021/10/02 07:28:58;;;;;;;10.70;8.33;;;16.80;99.90;;;;;;5054213;28;20193;-58
2021/10/02 07:31:23;;;;;;;9.97;8.07;;;16.80;99.90;;;;;;5053848;28;20425;-57
2021/10/02 07:33:49;;;;;;;10.70;8.00;;;16.80;99.90;;;;;;5053978;28;20177;-61
2021/10/02 07:36:19;;;;;;;8.33;7.47;;;16.80;99.90;;;;;;5054223;28;20690;-59
2021/10/02 07:38:45;;;;;;;8.80;7.90;;;16.80;99.90;;;;;;5054328;28;20528;-58
2021/10/02 07:41:13;;;;;;;9.30;7.20;;;16.90;99.90;;;;;;5053872;28;21062;-58
2021/10/02 07:43:41;;;;;;;8.90;7.67;;;16.90;99.90;;;;;;5053851;28;20485;-59
2021/10/02 07:46:14;;;;;;;8.83;7.90;;;16.80;99.90;;;;;;5053484;28;20429;-59
2021/10/02 07:48:41;;;;;;;7.23;6.50;;;16.80;99.90;;;;;;5054815;28;20413;-59
2021/10/02 07:51:09;;;;;;;9.10;7.10;;;16.90;99.90;;;;;;5054068;28;20409;-57
2021/10/02 07:53:35;;;;;;;8.60;7.70;;;17.00;99.90;;;;;;5053923;28;20408;-57
2021/10/02 07:56:02;;;;;;;9.10;8.20;;;17.10;99.90;;;;;;5053483;28;20478;-54
2021/10/02 07:58:28;;;;;;;9.20;7.57;;;17.30;99.90;;;;;;5053709;28;20519;-54
2021/10/02 08:00:57;;;;;;;8.97;7.07;;;17.20;99.90;;;;;;5053146;28;20528;-59
2021/10/02 08:03:23;;;;;;;7.70;6.50;;;17.10;99.90;;;;;;5053502;28;20215;-59
2021/10/02 08:05:49;;;;;;;8.63;7.03;;;17.30;99.90;;;;;;5053410;28;20944;-57
2021/10/02 08:08:16;;;;;;;7.90;7.20;;;17.30;99.90;;;;;;5053623;28;20398;-58
2021/10/02 08:10:43;;;;;;;8.60;7.17;;;17.50;99.90;;;;;;5052904;28;20175;-57
2021/10/02 08:13:12;;;;;;;8.47;7.67;;;17.40;99.90;;;;;;5053528;28;20405;-57
2021/10/02 08:15:46;;;;;;;7.97;7.17;;;17.30;99.90;;;;;;5016059;28;1075598;-59
2021/10/02 08:18:15;;;;;;;7.10;6.40;;;17.50;99.90;;;;;;5053689;28;20232;-59
2021/10/02 08:20:43;;;;;;;7.70;6.60;;;17.70;99.90;;;;;;5054082;28;20445;-56
2021/10/02 08:23:10;;;;;;;7.57;6.03;;;17.80;99.90;;;;;;5054190;28;20405;-59
2021/10/02 08:25:36;;;;;;;6.90;6.20;;;17.90;99.90;;;;;;5053876;28;20902;-59
2021/10/02 08:28:04;;;;;;;6.30;5.47;;;17.90;99.90;;;;;;5054202;28;20458;-59
2021/10/02 08:30:30;;;;;;;5.90;5.30;;;18.00;99.90;;;;;;5068918;28;20414;-59
2021/10/02 08:32:57;;;;;;;9.27;6.67;;;17.90;99.90;;;;;;5053812;28;20861;-55
2021/10/02 08:35:24;;;;;;;5.80;5.30;;;18.20;99.90;;;;;;5053779;28;20468;-59
2021/10/02 08:37:49;;;;;;;4.93;4.47;;;18.20;99.90;;;;;;5053991;28;20772;-59
2021/10/02 08:40:16;;;;;;;4.10;3.10;;;18.20;99.90;;;;;;5047772;28;20403;-59
2021/10/02 08:42:44;;;;;;;4.40;4.00;;;18.20;99.90;;;;;;5014271;28;20210;-58
2021/10/02 08:45:12;;;;;;;4.17;3.77;;;18.40;99.90;;;;;;5034150;28;20432;-59
2021/10/02 08:47:42;;;;;;;5.07;3.10;;;18.50;99.90;;;;;;5053606;28;21033;-58
2021/10/02 08:50:11;;;;;;;3.23;2.83;;;18.60;99.90;;;;;;5054390;28;20397;-58
2021/10/02 08:52:37;;;;;;;3.67;3.00;;;18.70;99.90;;;;;;5053896;28;20408;-59
2021/10/02 08:55:05;;;;;;;2.90;2.70;;;18.80;99.90;;;;;;5053653;28;20429;-56
2021/10/02 08:57:34;;;;;;;4.00;2.60;;;19.00;99.90;;;;;;5053979;28;20405;-58
2021/10/02 09:00:03;;;;;;;3.37;3.07;;;19.00;99.90;;;;;;5053255;28;20405;-59
2021/10/02 09:02:28;;;;;;;3.17;2.87;;;18.90;99.90;;;;;;5053507;28;20452;-58
2021/10/02 09:04:54;;;;;;;3.27;2.60;;;19.10;99.90;;;;;;5053352;28;20425;-58
2021/10/02 09:07:23;;;;;;;3.43;2.43;;;19.30;99.90;;;;;;5053511;28;20220;-59
2021/10/02 09:09:50;;;;;;;3.33;2.93;;;19.40;99.90;;;;;;5053593;28;20175;-58
2021/10/02 09:12:20;;;;;;;3.50;2.90;;;19.40;99.90;;;;;;5053203;28;20496;-58
2021/10/02 09:14:47;;;;;;;2.50;2.20;;;19.40;99.90;;;;;;5053361;28;20457;-54
2021/10/02 09:17:12;;;;;;;3.10;2.33;;;19.50;99.90;;;;;;5053073;28;20405;-57
2021/10/02 09:19:38;;;;;;;2.40;2.20;;;19.50;99.90;;;;;;5053312;28;20416;-58
2021/10/02 09:22:09;;;;;;;2.47;2.27;;;19.80;99.90;;;;;;5052432;28;20619;-56
2021/10/02 09:24:39;;;;;;;3.17;2.83;;;19.90;99.90;;;;;;5053100;28;20214;-59
2021/10/02 09:27:18;;;;;;;5.23;2.40;;;20.00;99.90;;;;;;5053310;28;20768;-60
2021/10/02 09:29:50;;;;;;;4.87;4.37;;;19.90;99.30;;;;;;5054442;28;20393;-55
2021/10/02 09:32:18;;;;;;;3.70;2.57;;;20.20;99.50;;;;;;5054054;28;20421;-58
2021/10/02 09:34:53;;;;;;;2.40;2.20;;;20.20;99.40;;;;;;5054250;28;20456;-59
2021/10/02 09:37:34;;;;;;;5.80;2.67;;;20.30;99.90;;;;;;5052084;28;20415;-58
2021/10/02 09:40:18;;;;;;;2.73;2.37;;;20.20;98.50;;;;;;5035596;28;20512;-58
2021/10/02 09:42:49;;;;;;;3.10;2.27;;;20.10;98.90;;;;;;5018486;28;20469;-58
2021/10/02 09:45:32;;;;;;;4.30;2.60;;;20.30;99.20;;;;;;5024351;28;20430;-57
2021/10/02 09:48:00;;;;;;;3.20;2.80;;;20.40;98.60;;;;;;5034399;28;20382;-58
2021/10/02 09:50:31;;;;;;;2.60;2.37;;;20.40;98.50;;;;;;5033471;28;20894;-56
2021/10/02 09:53:04;;;;;;;3.73;2.90;;;20.50;98.60;;;;;;5033097;28;20406;-55
2021/10/02 09:55:47;;;;;;;3.23;2.70;;;20.60;98.70;;;;;;5032712;28;20420;-58
2021/10/02 09:58:31;;;;;;;4.03;2.73;;;20.60;98.70;;;;;;5033214;28;20383;-57
2021/10/02 10:00:57;;;;;;;3.83;3.10;;;20.70;99.40;;;;;;5032786;28;20444;-57
2021/10/02 10:03:24;;;;;;;3.27;2.90;;;20.80;99.40;;;;;;5033227;28;20413;-57
2021/10/02 10:05:52;;;;;;;2.93;2.53;;;20.80;98.80;;;;;;5031644;28;20529;-56
2021/10/02 10:08:28;;;;;;;3.60;3.20;;;20.70;99.80;;;;;;5033146;28;20488;-56
2021/10/02 10:11:38;;;;;;;6.20;3.77;;;20.90;99.40;;;;;;5033030;28;20397;-59
2021/10/02 10:14:04;;;;;;;6.80;3.20;;;21.10;99.20;;;;;;5028281;28;20503;-57
2021/10/02 10:16:37;;;;;;;3.67;3.37;;;21.10;99.10;;;;;;5090650;22;20496;-57
2021/10/02 10:19:16;;;;;;;3.73;3.10;;;21.30;99.30;;;;;;5053023;28;20612;-55
2021/10/02 10:21:42;;;;;;;3.67;3.17;;;21.30;99.60;;;;;;5052669;28;20444;-58
2021/10/02 10:24:08;;;;;;;3.87;3.33;;;21.40;99.50;;;;;;5052419;28;20910;-56
2021/10/02 10:26:45;;;;;;;3.63;3.33;;;21.50;99.10;;;;;;5052171;28;20257;-56
2021/10/02 10:29:11;;;;;;;3.33;2.90;;;21.60;99.40;;;;;;5052439;28;20158;-56
2021/10/02 10:31:37;;;;;;;4.73;4.03;;;22.00;99.20;;;;;;5051647;28;20441;-56
2021/10/02 10:34:04;;;;;;;3.67;3.17;;;22.10;98.60;;;;;;5025813;28;20460;-58
2021/10/02 10:36:33;;;;;;;3.43;3.13;;;22.20;98.50;;;;;;5016111;28;20429;-56
2021/10/02 10:38:58;;;;;;;5.47;3.30;;;22.10;98.20;;;;;;5016550;28;20498;-58
2021/10/02 10:41:26;;;;;;;3.27;2.80;;;22.10;98.00;;;;;;5015080;28;20541;-59
2021/10/02 10:43:52;;;;;;;3.70;3.30;;;22.30;98.00;;;;;;5016187;28;20176;-58
2021/10/02 10:46:22;;;;;;;3.37;3.10;;;22.20;98.80;;;;;;5032253;28;20439;-56
2021/10/02 10:48:49;;;;;;;5.43;3.73;;;22.20;98.30;;;;;;5036608;28;20152;-57
2021/10/02 10:51:18;;;;;;;4.23;3.60;;;22.20;98.80;;;;;;5036036;28;20513;-58
2021/10/02 10:53:47;;;;;;;3.30;3.07;;;22.30;98.30;;;;;;5035703;28;20444;-58
2021/10/02 10:56:16;;;;;;;3.60;3.30;;;22.60;98.60;;;;;;5035488;28;20830;-55
2021/10/02 10:58:41;;;;;;;4.77;3.50;;;22.70;97.30;;;;;;5035884;28;20414;-58
2021/10/02 11:01:10;;;;;;;4.80;3.50;;;22.80;97.40;;;;;;5035343;28;20441;-58
2021/10/02 11:03:47;;;;;;;3.90;3.13;;;23.50;96.70;;;;;;5035830;28;20160;-58
2021/10/02 11:06:19;;;;;;;4.23;3.50;;;24.70;95.80;;;;;;5035524;28;20453;-56
2021/10/02 11:09:06;;;;;;;3.93;3.53;;;25.10;94.00;;;;;;5035789;28;20398;-56
2021/10/02 11:11:51;;;;;;;3.70;3.40;;;25.80;92.80;;;;;;5035457;28;20401;-58
2021/10/02 11:14:19;;;;;;;3.87;3.47;;;26.80;91.30;;;;;;5035598;28;20449;-58
2021/10/02 11:16:46;;;;;;;4.30;3.17;;;28.50;88.90;;;;;;5052799;28;20451;-57
2021/10/02 11:19:35;;;;;;;3.87;3.47;;;29.20;82.60;;;;;;5055039;28;20928;-57
2021/10/02 11:22:39;;;;;;;3.87;3.47;;;30.10;76.30;;;;;;5055478;28;20433;-57
2021/10/02 11:25:24;;;;;;;3.20;2.90;;;29.70;76.00;;;;;;5055051;28;20437;-59
2021/10/02 11:27:51;;;;;;;2.93;2.60;;;29.30;76.70;;;;;;5055247;28;20901;-59
2021/10/02 11:30:19;;;;;;;3.80;3.37;;;29.60;75.20;;;;;;5054789;28;20932;-58
2021/10/02 11:32:45;;;;;;;2.90;2.50;;;30.10;72.90;;;;;;5054871;28;20409;-59
2021/10/02 11:35:17;;;;;;;3.80;2.60;;;31.00;71.80;;;;;;5055309;28;20429;-58
2021/10/02 11:37:53;;;;;;;3.53;2.63;;;30.90;69.30;;;;;;5054945;28;20413;-55
2021/10/02 11:40:36;;;;;;;5.53;3.80;;;31.60;68.50;;;;;;5055029;28;20468;-59
2021/10/02 11:43:21;;;;;;;3.90;3.07;;;31.90;67.60;;;;;;5054437;28;20449;-56
2021/10/02 11:45:47;;;;;;;3.00;2.70;;;31.00;64.40;;;;;;5053565;28;20488;-56
2021/10/02 11:48:31;;;;;;;2.77;2.57;;;32.30;63.80;;;;;;5055028;28;20427;-54
2021/10/02 11:51:33;;;;;;;3.17;2.87;;;32.90;62.70;;;;;;5055179;28;20254;-57
2021/10/02 11:54:08;;;;;;;3.27;2.97;;;34.20;61.30;;;;;;5055041;28;20374;-57
2021/10/02 11:56:35;;;;;;;4.50;3.40;;;33.30;59.90;;;;;;5054240;28;20420;-53
2021/10/02 11:59:03;;;;;;;3.47;2.70;;;33.80;61.30;;;;;;5054791;28;20416;-57
2021/10/02 12:01:36;;;;;;;4.97;3.37;;;34.00;59.40;;;;;;5054132;28;20800;-57
2021/10/02 12:04:07;;;;;;;4.17;3.13;;;32.90;57.80;;;;;;5054666;28;20459;-57
2021/10/02 12:06:35;;;;;;;3.33;3.03;;;32.00;60.10;;;;;;5054213;28;20421;-57
2021/10/02 12:09:02;;;;;;;4.00;3.00;;;32.00;59.30;;;;;;5054368;28;20775;-56
2021/10/02 12:11:29;;;;;;;2.97;2.67;;;31.70;61.00;;;;;;5054036;28;20774;-55
2021/10/02 12:13:56;;;;;;;3.43;2.63;;;32.40;58.70;;;;;;5054742;28;20468;-57
2021/10/02 12:16:28;;;;;;;3.67;3.30;;;33.10;57.60;;;;;;5053555;28;20506;-57
2021/10/02 12:19:10;;;;;;;3.33;2.87;;;32.20;57.70;;;;;;5054669;28;20506;-57
2021/10/02 12:21:38;;;;;;;3.47;2.80;;;32.40;57.50;;;;;;5054114;28;20433;-56
2021/10/02 12:24:13;;;;;;;3.80;3.30;;;32.40;57.50;;;;;;5053859;28;20439;-58
2021/10/02 12:26:50;;;;;;;2.60;2.40;;;33.10;57.30;;;;;;5053884;28;20421;-56
2021/10/02 12:29:26;;;;;;;3.13;2.70;;;33.80;56.60;;;;;;5053846;28;20397;-57
2021/10/02 12:31:57;;;;;;;3.33;3.00;;;33.20;56.30;;;;;;5053839;28;20393;-57
2021/10/02 12:34:29;;;;;;;3.30;3.00;;;32.20;56.30;;;;;;5053679;28;20496;-58
2021/10/02 12:37:02;;;;;;;4.37;3.10;;;32.10;57.80;;;;;;5053551;28;20412;-58
2021/10/02 12:39:57;;;;;;;2.90;2.70;;;31.60;59.70;;;;;;5039730;28;20396;-57
2021/10/02 12:42:41;;;;;;;3.30;2.90;;;31.50;58.60;;;;;;5012512;28;20479;-58
2021/10/02 12:45:19;;;;;;;3.87;3.03;;;31.20;58.70;;;;;;5022525;28;20436;-56
2021/10/02 12:47:50;;;;;;;4.13;3.23;;;30.50;61.50;;;;;;5053205;28;20385;-56
2021/10/02 12:50:22;;;;;;;5.10;3.87;;;29.60;61.90;;;;;;5053058;28;20472;-57
2021/10/02 12:52:48;;;;;;;3.83;3.00;;;29.00;63.60;;;;;;5053461;28;20393;-58
2021/10/02 12:55:16;;;;;;;2.97;2.77;;;28.70;65.10;;;;;;5053021;28;20424;-58
2021/10/02 12:57:44;;;;;;;3.30;3.00;;;29.90;65.80;;;;;;5052870;28;20451;-57
2021/10/02 13:00:17;;;;;;;2.83;2.60;;;30.90;62.00;;;;;;5052628;28;20932;-57
2021/10/02 13:02:48;;;;;;;5.23;3.17;;;31.00;61.90;;;;;;5052636;28;20436;-56
2021/10/02 13:05:17;;;;;;;3.17;2.90;;;31.50;61.00;;;;;;5052956;28;20773;-57
2021/10/02 13:07:48;;;;;;;3.00;2.30;;;31.80;59.20;;;;;;5053108;28;20405;-55
2021/10/02 13:10:18;;;;;;;3.27;3.00;;;31.70;59.20;;;;;;5053256;28;20409;-55
2021/10/02 13:12:57;;;;;;;3.13;2.83;;;30.60;58.90;;;;;;5052881;28;20393;-58
2021/10/02 13:15:27;;;;;;;3.40;3.10;;;30.30;62.90;;;;;;5052737;28;20521;-55
2021/10/02 13:17:55;;;;;;;3.53;3.20;;;30.50;62.90;;;;;;5053311;28;20500;-58
2021/10/02 13:20:21;;;;;;;2.90;2.70;;;31.00;61.00;;;;;;5053315;28;20393;-56
2021/10/02 13:22:49;;;;;;;5.10;3.30;;;31.20;59.70;;;;;;5053137;28;20797;-58
2021/10/02 13:25:23;;;;;;;3.43;3.03;;;32.00;59.00;;;;;;5042148;28;20270;-58
2021/10/02 13:27:54;;;;;;;5.37;3.03;;;32.10;57.90;;;;;;5022037;28;20409;-57
2021/10/02 13:30:29;;;;;;;2.80;2.40;;;33.00;57.30;;;;;;5013045;28;20880;-58
2021/10/02 13:33:08;;;;;;;2.93;2.70;;;33.60;55.40;;;;;;5013634;28;20379;-55
2021/10/02 13:35:39;;;;;;;2.70;2.50;;;34.20;55.20;;;;;;5013458;28;20509;-58
2021/10/02 13:38:07;;;;;;;2.33;2.17;;;33.20;53.80;;;;;;5013575;28;20384;-58
2021/10/02 13:40:37;;;;;;;3.00;2.70;;;33.90;54.00;;;;;;5013300;28;20913;-57
2021/10/02 13:43:08;;;;;;;2.77;2.10;;;34.80;52.20;;;;;;5012925;28;20395;-57
2021/10/02 13:45:38;;;;;;;3.10;2.80;;;35.30;52.30;;;;;;5029385;28;20449;-58
2021/10/02 13:48:07;;;;;;;3.00;2.67;;;34.40;53.90;;;;;;5053061;28;20454;-58